Time;durP1;ratioP1;P1;durP2;ratioP2;P2;SDS_P1;SDS_P2;PMS_P1;PMS_P2;Temp;Humidity;BMP_temperature;BMP_pressure;BME280_temperature;BME280_humidity;BME280_pressure;Samples;Min_cycle;Max_cycle;Signal;HPM_P1;HPM_P2
2023/09/09 00:01:11;;;;;;;8.20;6.15;;;;;;;24.56;36.18;101190.09;5041278;28;20468;-71
2023/09/09 00:03:39;;;;;;;8.00;6.10;;;;;;;24.55;36.03;101190.31;5042918;28;20103;-70
2023/09/09 00:06:09;;;;;;;7.03;6.18;;;;;;;24.51;36.13;101193.53;5037731;28;20391;-72
2023/09/09 00:08:38;;;;;;;6.88;5.93;;;;;;;24.50;36.24;101190.94;5042164;28;20049;-69
2023/09/09 00:11:06;;;;;;;7.97;5.95;;;;;;;24.45;36.37;101194.41;5040464;28;20038;-71
2023/09/09 00:13:34;;;;;;;6.65;5.95;;;;;;;24.43;36.33;101188.16;5041638;28;20447;-72
2023/09/09 00:16:03;;;;;;;7.05;5.90;;;;;;;24.41;36.12;101192.25;5038283;28;20073;-70
2023/09/09 00:18:31;;;;;;;7.45;5.50;;;;;;;24.40;36.42;101190.56;5040659;28;20382;-70
2023/09/09 00:20:58;;;;;;;7.63;5.75;;;;;;;24.38;36.20;101187.09;5041190;28;20045;-70
2023/09/09 00:23:27;;;;;;;6.43;5.70;;;;;;;24.36;36.26;101186.47;5041632;28;20101;-71
2023/09/09 00:25:56;;;;;;;7.13;5.93;;;;;;;24.36;36.41;101187.31;5035912;28;20071;-72
2023/09/09 00:28:24;;;;;;;6.85;5.63;;;;;;;24.34;36.31;101177.38;5026005;28;20060;-72
2023/09/09 00:30:52;;;;;;;7.00;5.82;;;;;;;24.32;36.41;101180.38;5024969;28;20120;-71
2023/09/09 00:33:20;;;;;;;6.63;5.90;;;;;;;24.32;36.34;101182.34;5027110;28;20046;-71
2023/09/09 00:35:48;;;;;;;6.93;5.78;;;;;;;24.30;36.38;101174.19;5025858;28;20132;-72
2023/09/09 00:38:17;;;;;;;6.90;5.70;;;;;;;24.30;36.22;101174.19;5026600;28;20052;-73
2023/09/09 00:41:14;;;;;;;7.47;6.00;;;;;;;24.26;36.45;101170.09;5022468;28;20038;-72
2023/09/09 00:43:47;;;;;;;7.28;5.82;;;;;;;24.21;36.30;101167.09;5037638;28;20797;-73
2023/09/09 00:46:17;;;;;;;6.05;5.43;;;;;;;24.24;36.26;101171.41;5025440;28;20519;-73
2023/09/09 00:48:51;;;;;;;7.53;5.60;;;;;;;24.22;36.20;101162.34;5028512;28;20072;-71
2023/09/09 00:51:19;;;;;;;9.25;5.90;;;;;;;24.20;36.24;101164.50;5028926;28;20128;-72
2023/09/09 00:53:47;;;;;;;7.30;6.10;;;;;;;24.15;36.26;101160.41;5027983;28;20324;-71
2023/09/09 00:56:17;;;;;;;7.65;6.07;;;;;;;24.15;36.51;101168.78;5028453;28;20571;-70
2023/09/09 00:58:44;;;;;;;7.40;6.40;;;;;;;24.11;36.38;101163.88;5041449;28;20051;-71
2023/09/09 01:01:12;;;;;;;6.93;6.22;;;;;;;24.07;36.33;101169.00;5025697;28;20352;-70
2023/09/09 01:03:41;;;;;;;8.18;6.57;;;;;;;24.04;36.53;101172.25;5028078;28;20041;-70
2023/09/09 01:06:10;;;;;;;7.93;6.10;;;;;;;24.00;36.48;101168.16;5025566;28;20133;-71
2023/09/09 01:08:38;;;;;;;6.97;6.07;;;;;;;23.97;36.41;101167.75;5027944;28;20042;-75
2023/09/09 01:11:06;;;;;;;7.50;6.00;;;;;;;23.92;36.49;101162.78;5026108;28;20129;-71
2023/09/09 01:13:36;;;;;;;6.70;5.75;;;;;;;23.90;36.70;101164.97;5026750;28;20049;-73
2023/09/09 01:16:04;;;;;;;6.30;5.57;;;;;;;23.86;36.62;101165.59;5020499;28;20199;-71
2023/09/09 01:18:34;;;;;;;6.30;5.35;;;;;;;23.84;36.67;101162.13;5026702;28;20045;-74
2023/09/09 01:21:07;;;;;;;6.90;5.70;;;;;;;23.84;36.90;101160.22;5040096;28;20033;-70
2023/09/09 01:23:37;;;;;;;6.50;5.57;;;;;;;23.81;36.57;101160.66;5024757;28;21036;-71
2023/09/09 01:26:06;;;;;;;8.40;6.30;;;;;;;23.77;36.64;101163.00;5023540;28;20056;-70
2023/09/09 01:28:34;;;;;;;7.20;5.80;;;;;;;23.76;36.65;101168.81;5025210;28;20111;-71
2023/09/09 01:31:02;;;;;;;6.82;6.07;;;;;;;23.72;36.59;101165.56;5026039;28;20532;-71
2023/09/09 01:33:30;;;;;;;8.38;6.43;;;;;;;23.72;36.48;101161.91;5027240;28;20046;-70
2023/09/09 01:35:58;;;;;;;7.30;6.13;;;;;;;23.70;36.90;101164.03;5025480;28;20064;-70
2023/09/09 01:38:26;;;;;;;7.03;5.90;;;;;;;23.68;36.75;101160.59;5019858;28;20042;-70
2023/09/09 01:40:56;;;;;;;7.63;6.20;;;;;;;23.68;36.70;101163.38;5005232;28;20069;-71
2023/09/09 01:43:23;;;;;;;7.20;5.93;;;;;;;23.65;36.79;101169.44;5007036;28;20046;-72
2023/09/09 01:45:51;;;;;;;8.07;6.18;;;;;;;23.63;36.97;101165.97;5005633;28;20521;-70
2023/09/09 01:48:19;;;;;;;6.93;5.68;;;;;;;23.60;36.76;101166.41;5024047;28;20436;-70
2023/09/09 01:50:47;;;;;;;6.53;5.85;;;;;;;23.59;36.89;101170.25;5023685;28;20471;-70
2023/09/09 01:53:15;;;;;;;7.50;5.78;;;;;;;23.55;36.66;101166.19;5027760;28;20076;-70
2023/09/09 01:55:43;;;;;;;6.63;5.43;;;;;;;23.53;36.86;101160.81;5024413;28;20053;-70
2023/09/09 01:58:12;;;;;;;6.60;5.50;;;;;;;23.54;36.63;101170.03;5019590;28;20045;-70
2023/09/09 02:00:40;;;;;;;7.00;5.70;;;;;;;23.51;36.95;101170.47;5025442;28;20137;-71
2023/09/09 02:03:08;;;;;;;6.63;5.72;;;;;;;23.49;36.86;101167.03;5022907;28;20045;-71
2023/09/09 02:05:36;;;;;;;7.03;5.63;;;;;;;23.49;36.74;101167.03;5024240;28;20484;-71
2023/09/09 02:08:04;;;;;;;6.78;6.03;;;;;;;23.46;36.93;101168.31;5025408;28;20136;-71
2023/09/09 02:10:33;;;;;;;7.55;6.75;;;;;;;23.45;37.04;101169.38;5025098;28;20128;-72
2023/09/09 02:13:00;;;;;;;7.45;5.82;;;;;;;23.42;37.07;101168.94;5041035;28;20048;-70
2023/09/09 02:15:30;;;;;;;8.05;6.10;;;;;;;23.42;37.22;101174.53;5039568;28;20480;-70
2023/09/09 02:17:58;;;;;;;6.35;5.70;;;;;;;23.35;37.03;101169.78;5049998;28;20450;-71
2023/09/09 02:20:26;;;;;;;8.25;6.00;;;;;;;23.31;36.89;101174.09;5023155;28;20107;-71
2023/09/09 02:22:53;;;;;;;7.28;6.07;;;;;;;23.28;36.87;101165.25;5026442;28;20140;-70
2023/09/09 02:25:21;;;;;;;7.63;5.90;;;;;;;23.22;36.90;101158.59;5026639;28;20060;-71
2023/09/09 02:27:49;;;;;;;7.22;6.18;;;;;;;23.17;37.04;101165.84;5025317;28;20060;-70
2023/09/09 02:30:17;;;;;;;6.85;6.15;;;;;;;23.12;36.99;101163.69;5023752;28;20068;-71
2023/09/09 02:32:47;;;;;;;7.82;5.93;;;;;;;23.09;36.95;101163.22;5023950;28;20049;-72
2023/09/09 02:35:15;;;;;;;7.47;6.15;;;;;;;23.01;37.04;101162.34;5025014;28;20053;-70
2023/09/09 02:37:43;;;;;;;6.97;5.70;;;;;;;22.97;37.04;101149.03;5027368;28;20125;-71
2023/09/09 02:40:11;;;;;;;7.40;5.90;;;;;;;22.94;37.07;101163.38;5024662;28;20052;-70
2023/09/09 02:42:39;;;;;;;7.25;6.07;;;;;;;22.89;37.32;101158.44;5025846;28;20048;-70
2023/09/09 02:45:08;;;;;;;7.15;5.70;;;;;;;22.87;37.12;101160.56;5022406;28;20420;-71
2023/09/09 02:47:36;;;;;;;6.93;5.80;;;;;;;22.84;37.46;101158.19;5025120;28;20054;-71
2023/09/09 02:50:07;;;;;;;7.60;5.45;;;;;;;22.85;37.45;101156.25;5022154;28;20053;-70
2023/09/09 02:52:35;;;;;;;7.03;5.93;;;;;;;22.81;37.48;101158.63;5041432;28;20155;-70
2023/09/09 02:55:03;;;;;;;7.13;6.05;;;;;;;22.80;37.40;101165.28;5021259;28;20042;-72
2023/09/09 02:57:31;;;;;;;6.75;5.38;;;;;;;22.79;37.60;101160.75;5019942;28;20041;-71
2023/09/09 02:59:59;;;;;;;7.35;6.30;;;;;;;22.78;37.55;101170.19;5020429;28;20064;-70
2023/09/09 03:02:27;;;;;;;7.43;5.63;;;;;;;22.75;37.46;101162.25;5047925;28;20042;-71
2023/09/09 03:04:56;;;;;;;7.20;5.75;;;;;;;22.75;37.56;101161.41;5023849;28;20072;-70
2023/09/09 03:07:25;;;;;;;7.63;6.20;;;;;;;22.75;37.61;101162.25;5023168;28;20619;-70
2023/09/09 03:09:53;;;;;;;6.82;5.97;;;;;;;22.72;37.53;101161.78;5025655;28;20045;-71
2023/09/09 03:12:22;;;;;;;7.82;6.00;;;;;;;22.69;37.63;101163.06;5022437;28;20053;-71
2023/09/09 03:14:50;;;;;;;6.95;5.65;;;;;;;22.69;37.52;101165.00;5037177;28;20068;-70
2023/09/09 03:17:18;;;;;;;6.50;5.10;;;;;;;22.68;37.30;101166.06;5021217;28;20037;-71
2023/09/09 03:19:46;;;;;;;6.07;5.22;;;;;;;22.68;37.49;101164.13;5024200;28;20041;-71
2023/09/09 03:22:15;;;;;;;7.07;5.35;;;;;;;22.67;37.72;101161.56;5022926;28;20047;-71
2023/09/09 03:24:44;;;;;;;6.80;5.60;;;;;;;22.68;37.43;101164.13;5026570;28;20412;-71
2023/09/09 03:27:12;;;;;;;6.07;5.38;;;;;;;22.66;37.25;101165.41;5023118;28;20545;-70
2023/09/09 03:29:40;;;;;;;6.10;5.18;;;;;;;22.65;37.39;101164.56;5019994;28;20041;-70
2023/09/09 03:32:08;;;;;;;6.00;5.35;;;;;;;22.63;37.44;101155.53;5053329;28;20048;-70
2023/09/09 03:34:36;;;;;;;6.45;5.50;;;;;;;22.62;37.45;101160.25;5025809;28;20128;-70
2023/09/09 03:37:04;;;;;;;7.03;5.25;;;;;;;22.61;37.58;101166.88;5038432;28;20042;-71
2023/09/09 03:39:32;;;;;;;7.22;5.60;;;;;;;22.61;37.52;101168.81;5024483;28;20056;-72
2023/09/09 03:42:02;;;;;;;6.45;5.30;;;;;;;22.62;37.44;101162.16;5024550;28;20038;-70
2023/09/09 03:44:30;;;;;;;6.75;5.18;;;;;;;22.59;37.51;101160.66;5039222;28;20045;-70
2023/09/09 03:46:58;;;;;;;7.00;5.50;;;;;;;22.58;37.47;101164.53;5023234;28;20029;-70
2023/09/09 03:49:26;;;;;;;6.65;5.05;;;;;;;22.57;37.46;101167.53;5023596;28;20064;-70
2023/09/09 03:51:55;;;;;;;5.97;5.13;;;;;;;22.56;37.33;101165.78;5039086;28;20470;-71
2023/09/09 03:54:23;;;;;;;6.07;4.88;;;;;;;22.56;37.28;101161.06;5025957;28;20064;-71
2023/09/09 03:56:53;;;;;;;6.88;5.07;;;;;;;22.55;37.21;101158.50;5021824;28;20061;-70
2023/09/09 03:59:23;;;;;;;7.15;5.63;;;;;;;22.55;37.54;101162.13;5023111;28;20045;-71
2023/09/09 04:01:51;;;;;;;7.20;5.85;;;;;;;22.51;37.26;101160.78;5025477;28;20516;-72
2023/09/09 04:04:19;;;;;;;6.65;5.38;;;;;;;22.49;37.15;101156.50;5028494;28;20045;-71
2023/09/09 04:06:48;;;;;;;7.38;5.63;;;;;;;22.46;37.38;101168.91;5022536;28;20111;-70
2023/09/09 04:09:26;;;;;;;6.90;5.45;;;;;;;22.44;37.33;101172.97;5052034;28;20397;-70
2023/09/09 04:11:55;;;;;;;7.63;5.35;;;;;;;22.40;37.30;101169.75;5027525;28;20424;-70
2023/09/09 04:14:24;;;;;;;5.53;4.80;;;;;;;22.40;37.53;101178.09;5028580;28;20120;-71
2023/09/09 04:16:52;;;;;;;7.10;5.65;;;;;;;22.37;37.32;101172.94;5026500;28;20041;-72
2023/09/09 04:19:20;;;;;;;6.95;5.68;;;;;;;22.35;37.60;101175.06;5021745;28;20125;-70
2023/09/09 04:21:51;;;;;;;6.93;5.60;;;;;;;22.34;37.50;101173.38;5027439;28;20113;-70
2023/09/09 04:24:19;;;;;;;6.93;5.65;;;;;;;22.33;37.50;101170.78;5028110;28;20462;-69
2023/09/09 04:26:47;;;;;;;7.57;5.30;;;;;;;22.32;37.79;101175.47;5027427;28;20041;-70
2023/09/09 04:29:31;;;;;;;7.32;5.45;;;;;;;22.34;37.72;101175.28;5104022;22;20091;-88
2023/09/09 04:56:47;;;;;;;6.22;5.30;;;;;;;22.03;38.03;101187.69;4990738;28;20076;-88
2023/09/09 04:59:22;;;;;;;6.95;5.18;;;;;;;22.01;37.96;101186.19;5003081;28;20048;-70
2023/09/09 05:01:50;;;;;;;6.15;5.07;;;;;;;22.01;37.74;101195.41;4988817;28;20046;-70
2023/09/09 05:04:18;;;;;;;7.05;5.25;;;;;;;22.02;38.02;101196.25;4993164;28;20125;-70
2023/09/09 05:06:46;;;;;;;6.47;5.50;;;;;;;22.00;37.87;101196.47;4990591;28;20041;-71
2023/09/09 05:09:14;;;;;;;7.30;5.50;;;;;;;22.00;38.10;101207.63;5002749;28;20111;-70
2023/09/09 05:11:44;;;;;;;8.55;5.80;;;;;;;22.02;37.95;101204.59;4986189;28;20049;-70
2023/09/09 05:14:11;;;;;;;7.22;5.38;;;;;;;21.99;38.13;101200.31;4996923;28;20624;-70
2023/09/09 05:16:39;;;;;;;6.20;5.43;;;;;;;21.99;38.29;101199.47;5006997;28;20061;-70
2023/09/09 05:19:08;;;;;;;6.82;5.30;;;;;;;21.98;38.09;101201.38;5002339;28;20149;-70
2023/09/09 05:21:36;;;;;;;6.30;4.93;;;;;;;21.98;37.87;101204.16;5005739;28;20050;-69
2023/09/09 05:24:04;;;;;;;7.22;5.40;;;;;;;21.97;38.23;101205.22;4988627;28;20121;-71
2023/09/09 05:26:32;;;;;;;6.65;5.60;;;;;;;21.97;38.05;101207.16;4998483;28;20050;-71
2023/09/09 05:29:02;;;;;;;8.05;5.53;;;;;;;21.99;38.32;101218.97;4995784;28;20046;-70
2023/09/09 05:31:30;;;;;;;7.20;5.75;;;;;;;21.96;38.28;101220.22;4989934;28;20508;-71
2023/09/09 05:34:01;;;;;;;7.10;5.57;;;;;;;21.95;38.16;101215.69;5005821;28;20085;-70
2023/09/09 05:36:29;;;;;;;6.72;5.60;;;;;;;21.96;38.22;101213.78;5023140;28;20085;-70
2023/09/09 05:38:59;;;;;;;7.22;5.50;;;;;;;21.94;38.26;101221.47;5004081;28;20045;-70
2023/09/09 05:41:29;;;;;;;6.47;5.57;;;;;;;21.92;38.49;101221.69;5006732;28;20053;-70
2023/09/09 05:43:57;;;;;;;7.40;5.72;;;;;;;21.90;38.49;101221.00;5000469;28;20050;-70
2023/09/09 05:46:27;;;;;;;8.65;5.55;;;;;;;21.91;38.21;101231.13;5002704;28;20642;-70
2023/09/09 05:48:55;;;;;;;8.13;6.47;;;;;;;21.86;38.27;101219.66;5004895;28;20057;-70
2023/09/09 05:51:23;;;;;;;6.03;5.07;;;;;;;21.83;38.53;101225.66;4986335;28;20043;-70
2023/09/09 05:53:52;;;;;;;7.80;6.00;;;;;;;21.82;38.16;101237.84;4988459;28;20097;-71
2023/09/09 05:56:20;;;;;;;8.02;5.93;;;;;;;21.77;38.44;101235.66;4985455;28;20461;-70
2023/09/09 05:58:48;;;;;;;7.47;5.80;;;;;;;21.75;38.65;101226.66;4980495;28;20054;-70
2023/09/09 06:01:16;;;;;;;7.03;6.00;;;;;;;21.74;38.57;101236.06;4987771;28;20049;-71
2023/09/09 06:03:46;;;;;;;8.10;6.13;;;;;;;21.74;38.51;101236.06;5008575;28;20041;-70
2023/09/09 06:06:14;;;;;;;7.38;5.93;;;;;;;21.71;38.73;101235.59;5005129;28;20575;-70
2023/09/09 06:08:42;;;;;;;7.32;5.78;;;;;;;21.70;38.65;101236.63;5001536;28;20520;-71
2023/09/09 06:11:11;;;;;;;9.05;6.60;;;;;;;21.69;38.76;101244.13;4994269;28;20129;-70
2023/09/09 06:13:39;;;;;;;8.23;5.85;;;;;;;21.68;39.07;101247.13;4989010;28;20061;-71
2023/09/09 06:16:07;;;;;;;6.60;5.65;;;;;;;21.68;39.12;101234.06;5000058;28;20437;-70
2023/09/09 06:18:35;;;;;;;7.88;6.00;;;;;;;21.71;39.44;101249.50;5002888;28;20775;-71
2023/09/09 06:21:05;;;;;;;6.80;5.47;;;;;;;21.75;39.35;101245.28;5005839;28;20038;-70
2023/09/09 06:23:33;;;;;;;7.18;5.72;;;;;;;21.75;39.30;101242.50;5004939;28;20054;-71
2023/09/09 06:26:01;;;;;;;7.28;6.25;;;;;;;21.78;39.34;101251.31;4998532;28;20517;-70
2023/09/09 06:28:29;;;;;;;7.60;5.95;;;;;;;21.81;39.47;101252.84;5000764;28;20547;-71
2023/09/09 06:30:57;;;;;;;7.50;6.03;;;;;;;21.84;39.39;101255.25;5006155;28;20041;-70
2023/09/09 06:33:25;;;;;;;7.43;5.53;;;;;;;21.86;39.55;101253.97;5005812;28;20111;-70
2023/09/09 06:35:54;;;;;;;6.97;5.85;;;;;;;21.89;39.48;101253.56;5004375;28;20041;-70
2023/09/09 06:38:26;;;;;;;7.38;5.97;;;;;;;21.97;39.63;101255.38;4996600;28;20050;-71
2023/09/09 06:40:53;;;;;;;7.15;5.60;;;;;;;21.98;39.57;101253.47;5004380;28;20037;-70
2023/09/09 06:43:21;;;;;;;6.47;5.38;;;;;;;22.02;39.53;101254.78;5003388;28;20062;-70
2023/09/09 06:45:50;;;;;;;6.85;5.50;;;;;;;22.06;39.52;101256.13;5000737;28;20102;-69
2023/09/09 06:48:18;;;;;;;8.10;6.00;;;;;;;22.12;39.11;101253.38;4984784;28;20047;-69
2023/09/09 06:50:46;;;;;;;9.48;5.80;;;;;;;22.19;39.57;101259.00;4982183;28;20044;-69
2023/09/09 06:53:15;;;;;;;7.60;5.43;;;;;;;22.26;39.46;101263.56;4983938;28;20046;-71
2023/09/09 06:55:46;;;;;;;7.32;5.60;;;;;;;22.37;39.17;101264.09;4994411;28;20109;-70
2023/09/09 06:58:14;;;;;;;8.43;5.47;;;;;;;22.44;39.55;101263.06;4985063;28;20101;-70
2023/09/09 07:00:43;;;;;;;7.40;5.60;;;;;;;22.57;39.77;101266.03;4982817;28;20402;-70
2023/09/09 07:03:11;;;;;;;5.88;5.18;;;;;;;22.71;39.95;101269.75;5000392;28;20038;-71
2023/09/09 07:05:39;;;;;;;6.93;4.85;;;;;;;22.88;39.61;101270.28;5006464;28;20512;-69
2023/09/09 07:08:07;;;;;;;6.85;5.25;;;;;;;23.06;39.80;101275.34;4997391;28;20054;-70
2023/09/09 07:10:35;;;;;;;5.65;5.05;;;;;;;23.29;39.89;101275.91;5004910;28;20045;-70
2023/09/09 07:13:04;;;;;;;5.50;4.93;;;;;;;23.52;39.46;101269.97;5006060;28;20485;-70
2023/09/09 07:15:35;;;;;;;6.47;4.88;;;;;;;23.78;38.64;101284.06;4998152;28;20048;-70
2023/09/09 07:18:04;;;;;;;6.90;5.28;;;;;;;23.99;39.14;101281.06;5003885;28;20116;-70
2023/09/09 07:20:32;;;;;;;7.13;5.00;;;;;;;24.27;38.76;101282.81;4992093;28;20458;-70
2023/09/09 07:23:00;;;;;;;6.25;5.03;;;;;;;24.53;38.39;101282.84;4993844;28;20042;-70
2023/09/09 07:25:28;;;;;;;6.07;5.40;;;;;;;24.77;37.87;101287.78;5001999;28;20151;-70
2023/09/09 07:27:56;;;;;;;5.75;5.00;;;;;;;25.02;37.81;101276.78;5004250;28;20065;-70
2023/09/09 07:30:25;;;;;;;6.15;5.07;;;;;;;25.30;37.09;101279.28;5001859;28;21560;-72
2023/09/09 07:32:53;;;;;;;8.40;5.13;;;;;;;25.49;36.52;101281.09;5006800;28;20050;-70
2023/09/09 07:35:21;;;;;;;5.82;4.90;;;;;;;25.71;36.35;101283.63;4990380;28;20510;-69
2023/09/09 07:37:49;;;;;;;6.05;5.25;;;;;;;25.91;35.69;101285.22;4995373;28;20045;-69
2023/09/09 07:40:19;;;;;;;8.05;5.53;;;;;;;26.08;35.23;101274.34;5008182;28;20069;-69
2023/09/09 07:42:47;;;;;;;7.72;5.55;;;;;;;26.24;34.73;101284.16;5010658;28;20523;-69
2023/09/09 07:45:15;;;;;;;6.03;4.97;;;;;;;26.34;34.18;101278.88;5012719;28;20125;-69
2023/09/09 07:47:44;;;;;;;6.20;4.85;;;;;;;26.46;34.10;101282.69;4993281;28;20050;-68
2023/09/09 07:50:12;;;;;;;7.28;4.70;;;;;;;26.49;33.70;101273.78;4988233;28;20474;-68
2023/09/09 07:52:40;;;;;;;6.53;5.22;;;;;;;26.53;33.56;101274.19;5006610;28;20461;-69
2023/09/09 07:55:09;;;;;;;5.68;4.80;;;;;;;26.56;33.39;101277.38;5007385;28;20138;-69
2023/09/09 07:57:37;;;;;;;5.97;5.05;;;;;;;26.56;33.39;101284.94;5005357;28;20492;-68
2023/09/09 08:00:07;;;;;;;6.13;4.88;;;;;;;26.57;33.55;101281.91;5007160;28;20036;-68
2023/09/09 08:02:41;;;;;;;6.00;5.18;;;;;;;26.55;33.33;101281.28;5006934;28;20085;-69
2023/09/09 08:05:11;;;;;;;7.45;4.90;;;;;;;26.59;33.23;101276.94;5007385;28;20050;-69
2023/09/09 08:07:39;;;;;;;5.78;4.68;;;;;;;26.58;33.48;101277.16;5005439;28;20073;-69
2023/09/09 08:10:09;;;;;;;6.97;5.32;;;;;;;26.59;33.03;101278.88;5011684;28;20594;-72
2023/09/09 08:12:38;;;;;;;6.05;4.75;;;;;;;26.60;33.05;101280.59;5009918;28;20167;-73
2023/09/09 08:15:08;;;;;;;6.38;4.68;;;;;;;26.60;32.90;101286.22;4991580;28;20505;-73
2023/09/09 08:17:36;;;;;;;5.72;5.07;;;;;;;26.57;32.95;101286.66;5004257;28;20054;-73
2023/09/09 08:20:07;;;;;;;5.93;4.57;;;;;;;26.55;32.73;101284.09;5006396;28;20111;-71
2023/09/09 08:22:37;;;;;;;7.00;5.55;;;;;;;26.53;32.59;101272.25;5007103;28;20042;-72
2023/09/09 08:25:06;;;;;;;5.65;4.65;;;;;;;26.53;32.78;101291.03;5009744;28;20457;-73
2023/09/09 08:27:34;;;;;;;6.80;4.97;;;;;;;26.50;32.70;101289.53;5006764;28;20049;-73
2023/09/09 08:30:02;;;;;;;5.93;4.28;;;;;;;26.51;33.10;101290.41;5006268;28;20453;-71
2023/09/09 08:32:30;;;;;;;6.47;5.20;;;;;;;26.51;33.25;101293.22;5009529;28;20145;-73
2023/09/09 08:34:59;;;;;;;6.53;5.03;;;;;;;26.52;33.25;101295.78;5007997;28;20370;-72
2023/09/09 08:37:27;;;;;;;6.15;4.82;;;;;;;26.53;33.29;101291.91;5009302;28;20054;-70
2023/09/09 08:39:56;;;;;;;6.40;5.05;;;;;;;26.59;33.65;101298.53;5010421;28;20049;-70
2023/09/09 08:42:35;;;;;;;5.63;4.55;;;;;;;26.63;33.16;101295.06;5007239;28;20556;-72
2023/09/09 08:45:09;;;;;;;5.40;4.75;;;;;;;26.66;33.57;101286.19;4988681;28;20057;-72
2023/09/09 08:47:37;;;;;;;5.15;4.57;;;;;;;26.69;33.79;101291.34;5001323;28;20143;-74
2023/09/09 08:50:07;;;;;;;7.50;5.18;;;;;;;26.74;33.79;101290.63;4998005;28;20038;-71
2023/09/09 08:52:35;;;;;;;6.28;4.82;;;;;;;26.80;33.55;101286.03;5005373;28;20509;-71
2023/09/09 08:55:05;;;;;;;6.60;4.75;;;;;;;26.87;33.67;101293.34;5009276;28;20046;-74
2023/09/09 08:57:34;;;;;;;5.70;4.80;;;;;;;26.91;33.70;101291.75;5004857;28;20143;-74
2023/09/09 09:00:04;;;;;;;6.00;4.78;;;;;;;26.98;33.53;101292.53;5002292;28;20034;-74
2023/09/09 09:02:34;;;;;;;6.75;4.93;;;;;;;27.03;33.42;101292.72;4992054;28;20042;-74
2023/09/09 09:05:04;;;;;;;6.43;5.00;;;;;;;27.10;33.67;101293.50;4993447;28;20041;-74
2023/09/09 09:07:35;;;;;;;7.38;4.68;;;;;;;27.16;33.78;101288.06;5000956;28;20592;-75
2023/09/09 09:10:05;;;;;;;6.72;4.93;;;;;;;27.21;33.45;101291.00;4988512;28;20371;-73
2023/09/09 09:12:36;;;;;;;6.32;5.18;;;;;;;27.30;33.61;101298.03;5006496;28;20046;-73
2023/09/09 09:15:05;;;;;;;6.47;4.93;;;;;;;27.33;33.26;101291.97;4989821;28;20243;-74
2023/09/09 09:17:37;;;;;;;5.53;4.32;;;;;;;27.40;33.52;101290.78;4998851;28;20045;-74
2023/09/09 09:20:07;;;;;;;7.07;4.38;;;;;;;27.48;33.55;101293.28;5000596;28;20275;-73
2023/09/09 09:22:37;;;;;;;5.57;4.65;;;;;;;27.55;33.72;101293.19;5001116;28;20053;-74
2023/09/09 09:25:10;;;;;;;6.15;4.82;;;;;;;27.63;33.39;101297.63;5000759;28;20112;-74
2023/09/09 09:27:40;;;;;;;6.40;5.05;;;;;;;27.69;33.01;101291.09;4985748;28;20402;-75
2023/09/09 09:30:10;;;;;;;6.88;4.38;;;;;;;27.73;33.19;101293.19;5003805;28;20128;-74
2023/09/09 09:32:42;;;;;;;5.82;4.97;;;;;;;27.83;32.83;101295.44;4991066;28;20046;-74
2023/09/09 09:35:23;;;;;;;6.40;4.68;;;;;;;27.87;32.78;101299.47;5004648;28;20056;-73
2023/09/09 09:37:54;;;;;;;6.45;4.93;;;;;;;27.94;32.58;101293.75;4998740;28;20073;-73
2023/09/09 09:40:24;;;;;;;6.53;5.13;;;;;;;27.97;33.09;101288.50;4986536;28;20054;-74
2023/09/09 09:42:52;;;;;;;7.80;4.95;;;;;;;28.02;33.07;101288.66;5002754;28;20125;-74
2023/09/09 09:45:24;;;;;;;8.10;5.45;;;;;;;28.10;32.73;101296.75;4985681;28;20050;-74
2023/09/09 09:47:52;;;;;;;;;;;;;;;27.82;33.41;101288.94;5003022;28;20042;-74
2023/09/09 09:50:22;;;;;;;5.70;4.85;;;;;;;28.15;32.78;101288.44;5014019;28;20008;-73
2023/09/09 09:52:58;;;;;;;6.53;5.30;;;;;;;28.28;32.45;101293.00;5000163;28;20053;-75
2023/09/09 09:55:28;;;;;;;7.38;5.57;;;;;;;28.33;32.48;101281.03;5002101;28;20046;-73
2023/09/09 09:57:58;;;;;;;6.97;5.43;;;;;;;28.38;32.57;101292.41;5016953;28;20162;-73
2023/09/09 10:00:27;;;;;;;6.95;5.13;;;;;;;28.43;32.09;101286.94;5018644;28;20049;-74
2023/09/09 10:02:56;;;;;;;8.68;4.97;;;;;;;28.48;32.16;101284.25;4986841;28;20050;-74
2023/09/09 10:05:26;;;;;;;7.00;4.95;;;;;;;28.54;32.44;101280.44;5001315;28;20057;-73
2023/09/09 10:07:58;;;;;;;7.07;4.90;;;;;;;28.60;32.31;101273.84;4998552;28;20031;-73
2023/09/09 10:10:32;;;;;;;6.45;5.40;;;;;;;28.66;31.85;101286.09;5001705;28;20614;-74
2023/09/09 10:13:05;;;;;;;7.28;5.30;;;;;;;28.72;32.63;101279.47;5003211;28;20204;-74
2023/09/09 10:15:36;;;;;;;7.55;5.18;;;;;;;28.77;32.30;101286.09;5008668;28;20354;-75
2023/09/09 10:18:07;;;;;;;7.35;5.05;;;;;;;28.83;31.63;101285.16;5009873;28;20140;-76
2023/09/09 10:20:36;;;;;;;8.45;5.60;;;;;;;28.84;32.11;101284.06;5007056;28;20124;-72
2023/09/09 10:23:05;;;;;;;6.47;4.93;;;;;;;28.93;32.21;101281.72;5008140;28;20053;-68
2023/09/09 10:25:38;;;;;;;6.53;4.68;;;;;;;28.98;32.16;101285.50;5007696;28;20245;-72
2023/09/09 10:28:07;;;;;;;6.63;5.00;;;;;;;29.03;32.27;101279.13;5004622;28;20061;-72
2023/09/09 10:30:36;;;;;;;7.28;4.80;;;;;;;29.11;32.10;101277.88;5004981;28;20037;-71
2023/09/09 10:33:06;;;;;;;6.07;4.88;;;;;;;29.17;31.91;101269.31;4983462;28;20046;-71
2023/09/09 10:35:36;;;;;;;6.25;5.13;;;;;;;29.23;32.09;101275.91;4993791;28;20494;-71
2023/09/09 10:38:05;;;;;;;5.45;4.63;;;;;;;29.29;32.05;101275.78;5006135;28;20084;-71
2023/09/09 10:40:36;;;;;;;5.80;4.88;;;;;;;29.38;32.12;101269.75;5003074;28;20056;-71
2023/09/09 10:43:04;;;;;;;8.93;5.10;;;;;;;29.41;32.07;101269.28;5008427;28;20050;-72
2023/09/09 10:45:33;;;;;;;6.40;5.20;;;;;;;29.51;31.73;101277.97;4985481;28;20500;-70
2023/09/09 10:48:04;;;;;;;7.57;5.18;;;;;;;29.58;31.36;101271.06;5007263;28;20061;-75
2023/09/09 10:50:40;;;;;;;8.57;5.82;;;;;;;29.63;31.49;101267.47;5005282;28;20084;-75
2023/09/09 10:53:16;;;;;;;7.75;5.35;;;;;;;29.69;31.46;101264.50;4996848;28;20043;-74
2023/09/09 10:55:47;;;;;;;6.22;4.85;;;;;;;29.73;31.47;101267.72;4984856;28;20533;-74
2023/09/09 10:58:19;;;;;;;9.07;4.85;;;;;;;29.79;30.88;101271.47;4986219;28;20046;-75
2023/09/09 11:00:48;;;;;;;6.63;4.90;;;;;;;29.82;31.12;101271.84;4980480;28;20050;-74
2023/09/09 11:03:19;;;;;;;7.78;4.90;;;;;;;29.89;31.43;101271.69;5006831;28;20092;-74
2023/09/09 11:06:07;;;;;;;7.72;4.65;;;;;;;29.91;30.88;101267.50;5005173;28;20049;-74
2023/09/09 11:08:37;;;;;;;7.93;4.60;;;;;;;29.97;30.86;101268.44;5007434;28;20077;-74
2023/09/09 11:11:12;;;;;;;7.97;4.85;;;;;;;30.05;30.03;101266.06;5010048;28;20149;-74
2023/09/09 11:13:49;;;;;;;9.40;5.38;;;;;;;30.10;30.49;101277.44;5006259;28;20104;-73
2023/09/09 11:16:32;;;;;;;6.45;4.88;;;;;;;30.14;31.17;101274.97;5002266;28;20053;-72
2023/09/09 11:19:02;;;;;;;6.75;5.10;;;;;;;30.18;30.91;101264.00;5002951;28;20046;-73
2023/09/09 11:21:33;;;;;;;6.95;4.95;;;;;;;30.23;31.20;101266.97;5002800;28;20042;-73
2023/09/09 11:24:02;;;;;;;8.18;5.00;;;;;;;30.24;30.56;101261.09;4985416;28;20050;-73
2023/09/09 11:26:32;;;;;;;7.20;4.32;;;;;;;30.32;30.96;101265.44;4991374;28;20050;-72
2023/09/09 11:29:00;;;;;;;7.13;4.93;;;;;;;30.35;30.76;101260.13;4981128;28;20089;-73
2023/09/09 11:31:30;;;;;;;8.82;4.40;;;;;;;30.40;30.49;101262.19;4980296;28;20253;-74
2023/09/09 11:33:59;;;;;;;8.38;4.65;;;;;;;30.43;30.42;101254.03;4984419;28;20042;-72
2023/09/09 11:36:30;;;;;;;7.55;5.10;;;;;;;30.50;30.21;101250.22;4983953;28;20054;-73
2023/09/09 11:38:59;;;;;;;7.40;4.80;;;;;;;30.52;30.56;101248.81;4980199;28;20706;-72
2023/09/09 11:41:28;;;;;;;7.75;4.95;;;;;;;30.58;30.41;101256.25;4988908;28;20035;-72
2023/09/09 11:44:03;;;;;;;7.63;5.13;;;;;;;30.64;30.94;101254.38;4980886;28;20418;-72
2023/09/09 11:46:36;;;;;;;6.63;5.30;;;;;;;30.68;30.98;101258.38;4981383;28;20124;-72
2023/09/09 11:49:04;;;;;;;7.38;4.82;;;;;;;30.69;31.04;101254.47;4979540;28;20316;-72
2023/09/09 11:51:34;;;;;;;7.72;4.90;;;;;;;30.73;30.63;101258.53;4979117;28;20125;-73
2023/09/09 11:54:03;;;;;;;8.00;4.70;;;;;;;30.77;31.25;101245.56;4986112;28;20580;-72
2023/09/09 11:56:33;;;;;;;7.03;4.53;;;;;;;30.80;30.75;101251.56;4995083;28;20129;-72
2023/09/09 11:59:08;;;;;;;5.63;4.63;;;;;;;30.87;30.94;101251.38;4989288;28;20108;-72